sensor_id;sensor_type;location;lat;lon;timestamp;temperature;humidity
13256;DHT22;37913;48.370;10.930;2023-04-30T00:02:11;9.90;1.00
13256;DHT22;37913;48.370;10.930;2023-04-30T00:04:38;9.80;1.00
13256;DHT22;37913;48.370;10.930;2023-04-30T00:07:06;9.80;1.00
13256;DHT22;37913;48.370;10.930;2023-04-30T00:09:33;9.80;1.00
13256;DHT22;37913;48.370;10.930;2023-04-30T00:12:00;9.70;1.00
13256;DHT22;37913;48.370;10.930;2023-04-30T00:14:27;9.70;1.00
13256;DHT22;37913;48.370;10.930;2023-04-30T00:16:54;9.70;1.00
13256;DHT22;37913;48.370;10.930;2023-04-30T00:19:21;9.70;1.00
13256;DHT22;37913;48.370;10.930;2023-04-30T00:21:48;9.70;1.00
13256;DHT22;37913;48.370;10.930;2023-04-30T00:24:16;9.70;1.00
13256;DHT22;37913;48.370;10.930;2023-04-30T00:26:43;9.70;1.00
13256;DHT22;37913;48.370;10.930;2023-04-30T00:29:10;9.70;1.00
13256;DHT22;37913;48.370;10.930;2023-04-30T00:31:37;9.70;1.00
13256;DHT22;37913;48.370;10.930;2023-04-30T00:34:03;9.70;1.00
13256;DHT22;37913;48.370;10.930;2023-04-30T00:36:30;9.70;1.00
13256;DHT22;37913;48.370;10.930;2023-04-30T00:38:57;9.80;1.00
13256;DHT22;37913;48.370;10.930;2023-04-30T00:41:26;9.80;1.00
13256;DHT22;37913;48.370;10.930;2023-04-30T00:43:54;9.80;1.00
13256;DHT22;37913;48.370;10.930;2023-04-30T00:46:21;9.80;1.00
13256;DHT22;37913;48.370;10.930;2023-04-30T00:48:48;9.80;1.00
13256;DHT22;37913;48.370;10.930;2023-04-30T00:51:15;9.80;1.00
13256;DHT22;37913;48.370;10.930;2023-04-30T00:53:43;9.90;1.00
13256;DHT22;37913;48.370;10.930;2023-04-30T00:56:09;9.90;1.00
13256;DHT22;37913;48.370;10.930;2023-04-30T00:58:40;9.90;1.00
13256;DHT22;37913;48.370;10.930;2023-04-30T01:01:07;9.90;1.00
13256;DHT22;37913;48.370;10.930;2023-04-30T01:03:34;9.90;1.00
13256;DHT22;37913;48.370;10.930;2023-04-30T01:06:01;9.90;1.00
13256;DHT22;37913;48.370;10.930;2023-04-30T01:08:29;9.90;1.00
13256;DHT22;37913;48.370;10.930;2023-04-30T01:11:06;9.90;1.00
13256;DHT22;37913;48.370;10.930;2023-04-30T01:13:43;9.90;1.00
13256;DHT22;37913;48.370;10.930;2023-04-30T01:16:16;9.90;1.00
13256;DHT22;37913;48.370;10.930;2023-04-30T01:18:48;9.90;1.00
13256;DHT22;37913;48.370;10.930;2023-04-30T01:21:17;9.90;1.00
13256;DHT22;37913;48.370;10.930;2023-04-30T01:24:00;9.90;1.00
13256;DHT22;37913;48.370;10.930;2023-04-30T01:26:42;9.90;1.00
13256;DHT22;37913;48.370;10.930;2023-04-30T01:29:16;9.90;1.00
13256;DHT22;37913;48.370;10.930;2023-04-30T01:31:45;10.00;1.00
13256;DHT22;37913;48.370;10.930;2023-04-30T01:34:12;9.90;1.00
13256;DHT22;37913;48.370;10.930;2023-04-30T01:36:48;10.00;1.00
13256;DHT22;37913;48.370;10.930;2023-04-30T01:39:35;10.00;1.00
13256;DHT22;37913;48.370;10.930;2023-04-30T01:42:12;10.00;1.00
13256;DHT22;37913;48.370;10.930;2023-04-30T01:44:52;10.00;1.00
13256;DHT22;37913;48.370;10.930;2023-04-30T01:47:29;10.00;1.00
13256;DHT22;37913;48.370;10.930;2023-04-30T01:50:14;10.00;1.00
13256;DHT22;37913;48.370;10.930;2023-04-30T01:52:46;10.00;1.00
13256;DHT22;37913;48.370;10.930;2023-04-30T01:55:15;10.00;1.00
13256;DHT22;37913;48.370;10.930;2023-04-30T01:57:56;10.00;1.00
13256;DHT22;37913;48.370;10.930;2023-04-30T02:00:25;10.00;1.00
13256;DHT22;37913;48.370;10.930;2023-04-30T02:02:52;10.00;1.00
13256;DHT22;37913;48.370;10.930;2023-04-30T02:05:19;10.00;1.00
13256;DHT22;37913;48.370;10.930;2023-04-30T02:07:49;10.00;1.00
13256;DHT22;37913;48.370;10.930;2023-04-30T02:10:18;10.00;1.00
13256;DHT22;37913;48.370;10.930;2023-04-30T02:12:45;9.90;1.00
13256;DHT22;37913;48.370;10.930;2023-04-30T02:15:12;9.90;1.00
13256;DHT22;37913;48.370;10.930;2023-04-30T02:17:41;9.90;1.00
13256;DHT22;37913;48.370;10.930;2023-04-30T02:20:09;9.80;1.00
13256;DHT22;37913;48.370;10.930;2023-04-30T02:22:36;9.80;1.00
13256;DHT22;37913;48.370;10.930;2023-04-30T02:25:03;9.80;1.00
13256;DHT22;37913;48.370;10.930;2023-04-30T02:27:31;9.80;1.00
13256;DHT22;37913;48.370;10.930;2023-04-30T02:29:59;9.80;1.00
13256;DHT22;37913;48.370;10.930;2023-04-30T02:32:26;9.80;1.00
13256;DHT22;37913;48.370;10.930;2023-04-30T02:34:54;9.80;1.00
13256;DHT22;37913;48.370;10.930;2023-04-30T02:37:21;9.80;1.00
13256;DHT22;37913;48.370;10.930;2023-04-30T02:39:49;9.80;1.00
13256;DHT22;37913;48.370;10.930;2023-04-30T02:42:16;9.80;1.00
13256;DHT22;37913;48.370;10.930;2023-04-30T02:44:43;9.70;1.00
13256;DHT22;37913;48.370;10.930;2023-04-30T02:47:10;9.70;1.00
13256;DHT22;37913;48.370;10.930;2023-04-30T02:49:37;9.70;1.00
13256;DHT22;37913;48.370;10.930;2023-04-30T02:52:05;9.70;1.00
13256;DHT22;37913;48.370;10.930;2023-04-30T02:54:34;9.70;1.00
13256;DHT22;37913;48.370;10.930;2023-04-30T02:57:01;9.70;1.00
13256;DHT22;37913;48.370;10.930;2023-04-30T02:59:27;9.70;1.00
13256;DHT22;37913;48.370;10.930;2023-04-30T03:01:54;9.70;1.00
13256;DHT22;37913;48.370;10.930;2023-04-30T03:04:21;9.60;1.00
13256;DHT22;37913;48.370;10.930;2023-04-30T03:06:48;9.60;1.00
13256;DHT22;37913;48.370;10.930;2023-04-30T03:09:16;9.50;1.00
13256;DHT22;37913;48.370;10.930;2023-04-30T03:11:43;9.50;1.00
13256;DHT22;37913;48.370;10.930;2023-04-30T03:14:10;9.50;1.00
13256;DHT22;37913;48.370;10.930;2023-04-30T03:16:37;9.50;1.00
13256;DHT22;37913;48.370;10.930;2023-04-30T03:19:04;9.40;1.00
13256;DHT22;37913;48.370;10.930;2023-04-30T03:21:31;9.40;1.00
13256;DHT22;37913;48.370;10.930;2023-04-30T03:23:58;9.40;1.00
13256;DHT22;37913;48.370;10.930;2023-04-30T03:26:26;9.40;1.00
13256;DHT22;37913;48.370;10.930;2023-04-30T03:28:53;9.30;1.00
13256;DHT22;37913;48.370;10.930;2023-04-30T03:31:20;9.30;1.00
13256;DHT22;37913;48.370;10.930;2023-04-30T03:33:47;9.30;1.00
13256;DHT22;37913;48.370;10.930;2023-04-30T03:36:14;9.20;1.00
13256;DHT22;37913;48.370;10.930;2023-04-30T03:38:41;9.20;1.00
13256;DHT22;37913;48.370;10.930;2023-04-30T03:41:08;9.20;1.00
13256;DHT22;37913;48.370;10.930;2023-04-30T03:43:36;9.20;1.00
13256;DHT22;37913;48.370;10.930;2023-04-30T03:46:03;9.20;1.00
13256;DHT22;37913;48.370;10.930;2023-04-30T03:48:30;9.20;1.00
13256;DHT22;37913;48.370;10.930;2023-04-30T03:50:57;9.10;1.00
13256;DHT22;37913;48.370;10.930;2023-04-30T03:53:24;9.10;1.00
13256;DHT22;37913;48.370;10.930;2023-04-30T03:55:52;9.00;1.00
13256;DHT22;37913;48.370;10.930;2023-04-30T03:58:19;8.90;1.00
13256;DHT22;37913;48.370;10.930;2023-04-30T04:00:48;8.90;1.00
13256;DHT22;37913;48.370;10.930;2023-04-30T04:03:15;8.90;1.00
13256;DHT22;37913;48.370;10.930;2023-04-30T04:05:43;8.90;1.00
13256;DHT22;37913;48.370;10.930;2023-04-30T04:08:10;8.90;1.00
13256;DHT22;37913;48.370;10.930;2023-04-30T04:10:37;8.90;1.00
13256;DHT22;37913;48.370;10.930;2023-04-30T04:13:05;9.00;1.00
13256;DHT22;37913;48.370;10.930;2023-04-30T04:15:32;9.00;1.00
13256;DHT22;37913;48.370;10.930;2023-04-30T04:18:00;9.00;1.00
13256;DHT22;37913;48.370;10.930;2023-04-30T04:20:27;9.10;1.00
13256;DHT22;37913;48.370;10.930;2023-04-30T04:22:54;9.10;1.00
13256;DHT22;37913;48.370;10.930;2023-04-30T04:25:21;9.10;1.00
13256;DHT22;37913;48.370;10.930;2023-04-30T04:27:49;9.10;1.00
13256;DHT22;37913;48.370;10.930;2023-04-30T04:30:16;9.10;1.00
13256;DHT22;37913;48.370;10.930;2023-04-30T04:32:43;9.10;1.00
13256;DHT22;37913;48.370;10.930;2023-04-30T04:35:16;9.10;1.00
13256;DHT22;37913;48.370;10.930;2023-04-30T04:37:44;9.20;1.00
13256;DHT22;37913;48.370;10.930;2023-04-30T04:40:11;9.30;1.00
13256;DHT22;37913;48.370;10.930;2023-04-30T04:42:38;9.30;1.00
13256;DHT22;37913;48.370;10.930;2023-04-30T04:45:06;9.40;1.00
13256;DHT22;37913;48.370;10.930;2023-04-30T04:47:34;9.40;1.00
13256;DHT22;37913;48.370;10.930;2023-04-30T04:50:01;9.50;1.00
13256;DHT22;37913;48.370;10.930;2023-04-30T04:52:29;9.60;1.00
13256;DHT22;37913;48.370;10.930;2023-04-30T04:54:56;9.60;99.90
13256;DHT22;37913;48.370;10.930;2023-04-30T04:57:23;9.70;99.90
13256;DHT22;37913;48.370;10.930;2023-04-30T04:59:50;9.70;99.90
13256;DHT22;37913;48.370;10.930;2023-04-30T05:02:17;9.80;99.90
13256;DHT22;37913;48.370;10.930;2023-04-30T05:04:44;9.80;98.70
13256;DHT22;37913;48.370;10.930;2023-04-30T05:07:15;9.80;67.10
13256;DHT22;37913;48.370;10.930;2023-04-30T05:09:43;9.90;1.00
13256;DHT22;37913;48.370;10.930;2023-04-30T05:12:10;9.90;1.00
13256;DHT22;37913;48.370;10.930;2023-04-30T05:14:37;10.00;1.00
13256;DHT22;37913;48.370;10.930;2023-04-30T05:17:04;10.00;1.00
13256;DHT22;37913;48.370;10.930;2023-04-30T05:19:31;10.10;99.90
13256;DHT22;37913;48.370;10.930;2023-04-30T05:21:58;10.20;1.00
13256;DHT22;37913;48.370;10.930;2023-04-30T05:24:25;10.20;1.00
13256;DHT22;37913;48.370;10.930;2023-04-30T05:26:54;10.20;41.00
13256;DHT22;37913;48.370;10.930;2023-04-30T05:29:21;10.30;1.00
13256;DHT22;37913;48.370;10.930;2023-04-30T05:31:48;10.50;99.90
13256;DHT22;37913;48.370;10.930;2023-04-30T05:34:14;10.70;10.70
13256;DHT22;37913;48.370;10.930;2023-04-30T05:36:41;10.70;1.00
13256;DHT22;37913;48.370;10.930;2023-04-30T05:39:09;10.80;1.00
13256;DHT22;37913;48.370;10.930;2023-04-30T05:41:36;10.90;1.00
13256;DHT22;37913;48.370;10.930;2023-04-30T05:44:04;10.90;1.00
13256;DHT22;37913;48.370;10.930;2023-04-30T05:46:31;11.00;99.90
13256;DHT22;37913;48.370;10.930;2023-04-30T05:48:59;11.00;8.40
13256;DHT22;37913;48.370;10.930;2023-04-30T05:51:27;11.20;1.00
13256;DHT22;37913;48.370;10.930;2023-04-30T05:53:54;11.10;99.90
13256;DHT22;37913;48.370;10.930;2023-04-30T05:56:22;11.30;1.00
13256;DHT22;37913;48.370;10.930;2023-04-30T05:58:49;11.50;99.90
13256;DHT22;37913;48.370;10.930;2023-04-30T06:01:18;11.50;77.50
13256;DHT22;37913;48.370;10.930;2023-04-30T06:03:45;11.40;1.00
13256;DHT22;37913;48.370;10.930;2023-04-30T06:06:12;11.50;1.00
13256;DHT22;37913;48.370;10.930;2023-04-30T06:08:39;11.70;1.00
13256;DHT22;37913;48.370;10.930;2023-04-30T06:11:10;12.00;99.90
13256;DHT22;37913;48.370;10.930;2023-04-30T06:13:37;11.70;99.90
13256;DHT22;37913;48.370;10.930;2023-04-30T06:16:05;12.00;99.90
13256;DHT22;37913;48.370;10.930;2023-04-30T06:18:33;11.90;1.00
13256;DHT22;37913;48.370;10.930;2023-04-30T06:21:00;12.20;1.00
13256;DHT22;37913;48.370;10.930;2023-04-30T06:23:27;12.40;1.00
13256;DHT22;37913;48.370;10.930;2023-04-30T06:25:54;12.40;1.00
13256;DHT22;37913;48.370;10.930;2023-04-30T06:28:21;12.20;1.00
13256;DHT22;37913;48.370;10.930;2023-04-30T06:30:48;12.10;1.00
13256;DHT22;37913;48.370;10.930;2023-04-30T06:33:16;12.40;1.00
13256;DHT22;37913;48.370;10.930;2023-04-30T06:35:44;12.40;1.00
13256;DHT22;37913;48.370;10.930;2023-04-30T06:38:12;12.40;99.90
13256;DHT22;37913;48.370;10.930;2023-04-30T06:40:39;12.30;1.00
13256;DHT22;37913;48.370;10.930;2023-04-30T06:43:05;12.70;1.00
13256;DHT22;37913;48.370;10.930;2023-04-30T06:45:32;13.00;1.00
13256;DHT22;37913;48.370;10.930;2023-04-30T06:47:59;13.30;99.90
13256;DHT22;37913;48.370;10.930;2023-04-30T06:50:26;13.50;1.00
13256;DHT22;37913;48.370;10.930;2023-04-30T06:52:55;13.60;92.90
13256;DHT22;37913;48.370;10.930;2023-04-30T06:55:22;13.10;99.90
13256;DHT22;37913;48.370;10.930;2023-04-30T06:57:49;13.60;99.90
13256;DHT22;37913;48.370;10.930;2023-04-30T07:00:16;14.10;99.90
13256;DHT22;37913;48.370;10.930;2023-04-30T07:02:43;14.40;99.90
13256;DHT22;37913;48.370;10.930;2023-04-30T07:05:12;15.30;99.90
13256;DHT22;37913;48.370;10.930;2023-04-30T07:07:40;15.40;99.90
13256;DHT22;37913;48.370;10.930;2023-04-30T07:10:09;15.80;99.90
13256;DHT22;37913;48.370;10.930;2023-04-30T07:12:36;15.40;99.90
13256;DHT22;37913;48.370;10.930;2023-04-30T07:15:03;16.20;99.90
13256;DHT22;37913;48.370;10.930;2023-04-30T07:17:30;17.60;99.90
13256;DHT22;37913;48.370;10.930;2023-04-30T07:19:57;17.60;99.90
13256;DHT22;37913;48.370;10.930;2023-04-30T07:22:24;18.10;99.90
13256;DHT22;37913;48.370;10.930;2023-04-30T07:24:52;18.20;99.90
13256;DHT22;37913;48.370;10.930;2023-04-30T07:27:20;17.90;99.90
13256;DHT22;37913;48.370;10.930;2023-04-30T07:29:47;16.60;99.90
13256;DHT22;37913;48.370;10.930;2023-04-30T07:32:14;17.80;99.90
13256;DHT22;37913;48.370;10.930;2023-04-30T07:34:42;18.80;99.90
13256;DHT22;37913;48.370;10.930;2023-04-30T07:37:09;18.50;99.90
13256;DHT22;37913;48.370;10.930;2023-04-30T07:39:36;18.50;99.90
13256;DHT22;37913;48.370;10.930;2023-04-30T07:42:03;19.60;99.90
13256;DHT22;37913;48.370;10.930;2023-04-30T07:44:31;20.70;99.90
13256;DHT22;37913;48.370;10.930;2023-04-30T07:46:58;20.70;99.90
13256;DHT22;37913;48.370;10.930;2023-04-30T07:49:25;19.60;99.90
13256;DHT22;37913;48.370;10.930;2023-04-30T07:51:52;18.70;99.90
13256;DHT22;37913;48.370;10.930;2023-04-30T07:54:20;20.40;99.90
13256;DHT22;37913;48.370;10.930;2023-04-30T07:56:47;21.40;99.90
13256;DHT22;37913;48.370;10.930;2023-04-30T07:59:14;20.90;99.90
13256;DHT22;37913;48.370;10.930;2023-04-30T08:01:43;21.80;99.90
13256;DHT22;37913;48.370;10.930;2023-04-30T08:04:10;19.80;99.90
13256;DHT22;37913;48.370;10.930;2023-04-30T08:06:37;20.10;99.90
13256;DHT22;37913;48.370;10.930;2023-04-30T08:09:04;19.10;99.90
13256;DHT22;37913;48.370;10.930;2023-04-30T08:11:31;19.50;99.90
13256;DHT22;37913;48.370;10.930;2023-04-30T08:13:58;19.10;99.90
13256;DHT22;37913;48.370;10.930;2023-04-30T08:16:24;21.20;99.90
13256;DHT22;37913;48.370;10.930;2023-04-30T08:18:53;22.40;99.10
13256;DHT22;37913;48.370;10.930;2023-04-30T08:21:20;21.50;98.30
13256;DHT22;37913;48.370;10.930;2023-04-30T08:23:47;20.70;99.20
13256;DHT22;37913;48.370;10.930;2023-04-30T08:26:14;20.20;99.90
13256;DHT22;37913;48.370;10.930;2023-04-30T08:28:41;21.80;97.90
13256;DHT22;37913;48.370;10.930;2023-04-30T08:31:08;19.50;99.80
13256;DHT22;37913;48.370;10.930;2023-04-30T08:33:35;19.70;99.90
13256;DHT22;37913;48.370;10.930;2023-04-30T08:36:04;21.60;98.30
13256;DHT22;37913;48.370;10.930;2023-04-30T08:38:31;21.40;98.10
13256;DHT22;37913;48.370;10.930;2023-04-30T08:41:04;19.20;99.90
13256;DHT22;37913;48.370;10.930;2023-04-30T08:43:33;18.60;99.90
13256;DHT22;37913;48.370;10.930;2023-04-30T08:46:01;17.50;99.90
13256;DHT22;37913;48.370;10.930;2023-04-30T08:48:28;16.70;99.90
13256;DHT22;37913;48.370;10.930;2023-04-30T08:50:58;17.00;99.90
13256;DHT22;37913;48.370;10.930;2023-04-30T08:53:27;16.90;99.90
13256;DHT22;37913;48.370;10.930;2023-04-30T08:55:55;17.20;99.90
13256;DHT22;37913;48.370;10.930;2023-04-30T08:58:22;17.00;99.90
13256;DHT22;37913;48.370;10.930;2023-04-30T09:00:49;19.70;99.90
13256;DHT22;37913;48.370;10.930;2023-04-30T09:03:15;20.40;99.90
13256;DHT22;37913;48.370;10.930;2023-04-30T09:05:42;20.30;99.90
13256;DHT22;37913;48.370;10.930;2023-04-30T09:08:16;20.80;99.60
13256;DHT22;37913;48.370;10.930;2023-04-30T09:10:45;21.20;99.20
13256;DHT22;37913;48.370;10.930;2023-04-30T09:13:12;22.70;98.00
13256;DHT22;37913;48.370;10.930;2023-04-30T09:15:39;25.10;94.20
13256;DHT22;37913;48.370;10.930;2023-04-30T09:18:09;24.00;92.80
13256;DHT22;37913;48.370;10.930;2023-04-30T09:20:37;22.60;94.60
13256;DHT22;37913;48.370;10.930;2023-04-30T09:23:07;20.50;97.20
13256;DHT22;37913;48.370;10.930;2023-04-30T09:25:38;18.90;99.50
13256;DHT22;37913;48.370;10.930;2023-04-30T09:28:11;18.80;99.90
13256;DHT22;37913;48.370;10.930;2023-04-30T09:30:38;18.00;99.90
13256;DHT22;37913;48.370;10.930;2023-04-30T09:33:05;17.30;99.90
13256;DHT22;37913;48.370;10.930;2023-04-30T09:35:33;16.50;99.90
13256;DHT22;37913;48.370;10.930;2023-04-30T09:38:00;16.60;99.90
13256;DHT22;37913;48.370;10.930;2023-04-30T09:40:35;16.60;99.90
13256;DHT22;37913;48.370;10.930;2023-04-30T09:43:03;16.00;99.90
13256;DHT22;37913;48.370;10.930;2023-04-30T09:45:41;16.40;99.90
13256;DHT22;37913;48.370;10.930;2023-04-30T09:48:09;16.70;99.90
13256;DHT22;37913;48.370;10.930;2023-04-30T09:50:37;16.80;99.90
13256;DHT22;37913;48.370;10.930;2023-04-30T09:53:06;16.30;99.90
13256;DHT22;37913;48.370;10.930;2023-04-30T09:55:34;16.10;99.90
13256;DHT22;37913;48.370;10.930;2023-04-30T09:58:04;16.10;99.90
13256;DHT22;37913;48.370;10.930;2023-04-30T10:00:33;16.40;99.90
13256;DHT22;37913;48.370;10.930;2023-04-30T10:03:05;16.40;99.90
13256;DHT22;37913;48.370;10.930;2023-04-30T10:05:36;16.40;99.90
13256;DHT22;37913;48.370;10.930;2023-04-30T10:08:09;16.30;99.90
13256;DHT22;37913;48.370;10.930;2023-04-30T10:10:37;16.40;99.90
13256;DHT22;37913;48.370;10.930;2023-04-30T10:13:09;16.80;99.90
13256;DHT22;37913;48.370;10.930;2023-04-30T10:15:39;18.00;99.90
13256;DHT22;37913;48.370;10.930;2023-04-30T10:18:13;18.10;99.90
13256;DHT22;37913;48.370;10.930;2023-04-30T10:20:46;17.10;99.90
13256;DHT22;37913;48.370;10.930;2023-04-30T10:23:14;16.80;99.90
13256;DHT22;37913;48.370;10.930;2023-04-30T10:25:42;16.10;99.90
13256;DHT22;37913;48.370;10.930;2023-04-30T10:28:10;16.10;99.90
13256;DHT22;37913;48.370;10.930;2023-04-30T10:30:38;16.70;99.90
13256;DHT22;37913;48.370;10.930;2023-04-30T10:33:14;17.20;99.90
13256;DHT22;37913;48.370;10.930;2023-04-30T10:35:46;17.50;99.90
13256;DHT22;37913;48.370;10.930;2023-04-30T10:38:19;16.70;99.90
13256;DHT22;37913;48.370;10.930;2023-04-30T10:40:47;16.70;99.90
13256;DHT22;37913;48.370;10.930;2023-04-30T10:43:16;16.80;99.90
13256;DHT22;37913;48.370;10.930;2023-04-30T10:45:44;17.30;99.90
13256;DHT22;37913;48.370;10.930;2023-04-30T10:48:14;17.30;99.90
13256;DHT22;37913;48.370;10.930;2023-04-30T10:50:42;16.90;99.90
13256;DHT22;37913;48.370;10.930;2023-04-30T10:53:12;16.70;99.90
13256;DHT22;37913;48.370;10.930;2023-04-30T10:55:45;16.20;99.90
13256;DHT22;37913;48.370;10.930;2023-04-30T10:58:24;16.10;99.90
13256;DHT22;37913;48.370;10.930;2023-04-30T11:00:59;16.20;99.90
13256;DHT22;37913;48.370;10.930;2023-04-30T11:03:29;16.70;99.90
13256;DHT22;37913;48.370;10.930;2023-04-30T11:05:57;16.50;99.90
13256;DHT22;37913;48.370;10.930;2023-04-30T11:08:34;16.90;99.90
13256;DHT22;37913;48.370;10.930;2023-04-30T11:11:02;16.60;99.90
13256;DHT22;37913;48.370;10.930;2023-04-30T11:13:40;16.90;99.90
13256;DHT22;37913;48.370;10.930;2023-04-30T11:16:10;18.00;99.90
13256;DHT22;37913;48.370;10.930;2023-04-30T11:18:45;18.90;99.90
13256;DHT22;37913;48.370;10.930;2023-04-30T11:21:13;19.40;99.30
13256;DHT22;37913;48.370;10.930;2023-04-30T11:23:40;20.00;98.60
13256;DHT22;37913;48.370;10.930;2023-04-30T11:26:09;18.60;97.90
13256;DHT22;37913;48.370;10.930;2023-04-30T11:28:36;18.80;98.70
13256;DHT22;37913;48.370;10.930;2023-04-30T11:31:05;19.00;99.60
13256;DHT22;37913;48.370;10.930;2023-04-30T11:33:33;18.60;99.90
13256;DHT22;37913;48.370;10.930;2023-04-30T11:36:01;18.30;99.90
13256;DHT22;37913;48.370;10.930;2023-04-30T11:38:30;18.50;99.90
13256;DHT22;37913;48.370;10.930;2023-04-30T11:40:57;18.40;99.30
13256;DHT22;37913;48.370;10.930;2023-04-30T11:43:26;19.20;98.80
13256;DHT22;37913;48.370;10.930;2023-04-30T11:46:05;19.60;98.10
13256;DHT22;37913;48.370;10.930;2023-04-30T11:48:33;19.20;98.50
13256;DHT22;37913;48.370;10.930;2023-04-30T11:51:13;19.10;98.60
13256;DHT22;37913;48.370;10.930;2023-04-30T11:53:40;20.40;98.10
13256;DHT22;37913;48.370;10.930;2023-04-30T11:56:08;20.50;96.70
13256;DHT22;37913;48.370;10.930;2023-04-30T11:58:35;19.90;97.10
13256;DHT22;37913;48.370;10.930;2023-04-30T12:01:04;18.70;97.80
13256;DHT22;37913;48.370;10.930;2023-04-30T12:03:40;19.40;97.50
13256;DHT22;37913;48.370;10.930;2023-04-30T12:06:10;19.70;97.40
13256;DHT22;37913;48.370;10.930;2023-04-30T12:08:40;22.10;95.10
13256;DHT22;37913;48.370;10.930;2023-04-30T12:11:19;22.70;93.90
13256;DHT22;37913;48.370;10.930;2023-04-30T12:13:50;23.20;92.00
13256;DHT22;37913;48.370;10.930;2023-04-30T12:16:17;24.60;90.50
13256;DHT22;37913;48.370;10.930;2023-04-30T12:18:44;24.30;90.00
13256;DHT22;37913;48.370;10.930;2023-04-30T12:21:13;21.50;91.80
13256;DHT22;37913;48.370;10.930;2023-04-30T12:23:40;20.00;94.60
13256;DHT22;37913;48.370;10.930;2023-04-30T12:26:07;19.10;96.10
13256;DHT22;37913;48.370;10.930;2023-04-30T12:28:34;18.20;96.20
13256;DHT22;37913;48.370;10.930;2023-04-30T12:31:01;17.60;98.50
13256;DHT22;37913;48.370;10.930;2023-04-30T12:33:30;18.10;99.10
13256;DHT22;37913;48.370;10.930;2023-04-30T12:35:58;19.70;96.40
13256;DHT22;37913;48.370;10.930;2023-04-30T12:38:26;19.10;96.40
13256;DHT22;37913;48.370;10.930;2023-04-30T12:40:53;18.80;97.10
13256;DHT22;37913;48.370;10.930;2023-04-30T12:43:20;18.50;97.40
13256;DHT22;37913;48.370;10.930;2023-04-30T12:45:49;18.40;98.40
13256;DHT22;37913;48.370;10.930;2023-04-30T12:48:18;17.90;98.60
13256;DHT22;37913;48.370;10.930;2023-04-30T12:50:53;18.60;99.30
13256;DHT22;37913;48.370;10.930;2023-04-30T12:53:20;19.50;96.70
13256;DHT22;37913;48.370;10.930;2023-04-30T12:56:09;19.00;95.70
13256;DHT22;37913;48.370;10.930;2023-04-30T12:58:37;21.70;93.50
13256;DHT22;37913;48.370;10.930;2023-04-30T13:01:04;23.30;91.90
13256;DHT22;37913;48.370;10.930;2023-04-30T13:03:32;24.90;87.20
13256;DHT22;37913;48.370;10.930;2023-04-30T13:05:59;26.40;81.20
13256;DHT22;37913;48.370;10.930;2023-04-30T13:08:27;27.30;76.70
13256;DHT22;37913;48.370;10.930;2023-04-30T13:10:54;26.00;78.30
13256;DHT22;37913;48.370;10.930;2023-04-30T13:13:22;25.30;81.80
13256;DHT22;37913;48.370;10.930;2023-04-30T13:15:49;23.50;80.10
13256;DHT22;37913;48.370;10.930;2023-04-30T13:18:16;21.20;87.60
13256;DHT22;37913;48.370;10.930;2023-04-30T13:20:43;21.00;90.20
13256;DHT22;37913;48.370;10.930;2023-04-30T13:23:10;23.00;87.50
13256;DHT22;37913;48.370;10.930;2023-04-30T13:25:38;22.40;85.20
13256;DHT22;37913;48.370;10.930;2023-04-30T13:28:06;24.60;84.10
13256;DHT22;37913;48.370;10.930;2023-04-30T13:30:34;26.10;78.80
13256;DHT22;37913;48.370;10.930;2023-04-30T13:33:03;26.60;77.80
13256;DHT22;37913;48.370;10.930;2023-04-30T13:35:30;25.60;77.30
13256;DHT22;37913;48.370;10.930;2023-04-30T13:37:58;24.70;77.30
13256;DHT22;37913;48.370;10.930;2023-04-30T13:40:25;23.60;79.10
13256;DHT22;37913;48.370;10.930;2023-04-30T13:42:52;24.50;78.40
13256;DHT22;37913;48.370;10.930;2023-04-30T13:45:19;24.10;79.60
13256;DHT22;37913;48.370;10.930;2023-04-30T13:47:47;24.40;78.90
13256;DHT22;37913;48.370;10.930;2023-04-30T13:50:14;24.30;79.20
13256;DHT22;37913;48.370;10.930;2023-04-30T13:52:42;23.70;79.70
13256;DHT22;37913;48.370;10.930;2023-04-30T13:55:09;22.90;81.50
13256;DHT22;37913;48.370;10.930;2023-04-30T13:57:36;22.70;83.00
13256;DHT22;37913;48.370;10.930;2023-04-30T14:00:05;21.90;83.80
13256;DHT22;37913;48.370;10.930;2023-04-30T14:02:33;21.90;85.10
13256;DHT22;37913;48.370;10.930;2023-04-30T14:05:01;22.10;83.90
13256;DHT22;37913;48.370;10.930;2023-04-30T14:07:29;21.00;83.10
13256;DHT22;37913;48.370;10.930;2023-04-30T14:09:56;20.40;84.90
13256;DHT22;37913;48.370;10.930;2023-04-30T14:12:24;19.90;88.40
13256;DHT22;37913;48.370;10.930;2023-04-30T14:14:51;19.60;87.80
13256;DHT22;37913;48.370;10.930;2023-04-30T14:17:18;19.90;89.50
13256;DHT22;37913;48.370;10.930;2023-04-30T14:19:45;19.40;90.80
13256;DHT22;37913;48.370;10.930;2023-04-30T14:22:14;18.40;93.70
13256;DHT22;37913;48.370;10.930;2023-04-30T14:24:42;19.10;93.30
13256;DHT22;37913;48.370;10.930;2023-04-30T14:27:09;19.20;92.60
13256;DHT22;37913;48.370;10.930;2023-04-30T14:29:37;19.00;92.60
13256;DHT22;37913;48.370;10.930;2023-04-30T14:32:05;18.00;92.30
13256;DHT22;37913;48.370;10.930;2023-04-30T14:34:33;17.90;93.80
13256;DHT22;37913;48.370;10.930;2023-04-30T14:37:01;17.60;95.00
13256;DHT22;37913;48.370;10.930;2023-04-30T14:39:30;17.90;95.70
13256;DHT22;37913;48.370;10.930;2023-04-30T14:41:58;17.90;95.30
13256;DHT22;37913;48.370;10.930;2023-04-30T14:44:26;18.00;94.80
13256;DHT22;37913;48.370;10.930;2023-04-30T14:46:53;17.90;95.50
13256;DHT22;37913;48.370;10.930;2023-04-30T14:49:20;17.60;95.20
13256;DHT22;37913;48.370;10.930;2023-04-30T14:51:47;17.30;95.80
13256;DHT22;37913;48.370;10.930;2023-04-30T14:54:14;17.60;94.20
13256;DHT22;37913;48.370;10.930;2023-04-30T14:56:42;17.40;94.60
13256;DHT22;37913;48.370;10.930;2023-04-30T14:59:09;17.50;94.60
13256;DHT22;37913;48.370;10.930;2023-04-30T15:01:38;17.70;94.10
13256;DHT22;37913;48.370;10.930;2023-04-30T15:04:05;18.30;94.40
13256;DHT22;37913;48.370;10.930;2023-04-30T15:06:32;18.60;94.30
13256;DHT22;37913;48.370;10.930;2023-04-30T15:08:59;18.20;94.40
13256;DHT22;37913;48.370;10.930;2023-04-30T15:11:26;18.30;93.10
13256;DHT22;37913;48.370;10.930;2023-04-30T15:13:54;17.60;93.60
13256;DHT22;37913;48.370;10.930;2023-04-30T15:16:21;17.40;93.60
13256;DHT22;37913;48.370;10.930;2023-04-30T15:18:48;17.40;94.60
13256;DHT22;37913;48.370;10.930;2023-04-30T15:21:15;17.40;95.40
13256;DHT22;37913;48.370;10.930;2023-04-30T15:23:43;17.00;94.80
13256;DHT22;37913;48.370;10.930;2023-04-30T15:26:10;17.10;95.80
13256;DHT22;37913;48.370;10.930;2023-04-30T15:28:37;17.00;95.50
13256;DHT22;37913;48.370;10.930;2023-04-30T15:31:05;16.80;95.70
13256;DHT22;37913;48.370;10.930;2023-04-30T15:33:32;16.80;95.80